sensor_id;sensor_type;location;lat;lon;timestamp;P1;durP1;ratioP1;P2;durP2;ratioP2
20480;SDS011;10399;50.754;3.366;2022-12-07T00:01:27;15.93;;;9.45;;
20480;SDS011;10399;50.754;3.366;2022-12-07T00:03:56;17.88;;;9.23;;
20480;SDS011;10399;50.754;3.366;2022-12-07T00:09:00;16.63;;;9.07;;
20480;SDS011;10399;50.754;3.366;2022-12-07T00:11:26;17.33;;;8.90;;
20480;SDS011;10399;50.754;3.366;2022-12-07T00:13:55;16.70;;;9.02;;
20480;SDS011;10399;50.754;3.366;2022-12-07T00:16:25;15.27;;;8.60;;
20480;SDS011;10399;50.754;3.366;2022-12-07T00:18:54;14.27;;;8.05;;
20480;SDS011;10399;50.754;3.366;2022-12-07T00:21:23;16.95;;;8.98;;
20480;SDS011;10399;50.754;3.366;2022-12-07T00:23:52;17.58;;;8.63;;
20480;SDS011;10399;50.754;3.366;2022-12-07T00:26:30;18.60;;;8.70;;
20480;SDS011;10399;50.754;3.366;2022-12-07T00:29:06;11.15;;;7.50;;
20480;SDS011;10399;50.754;3.366;2022-12-07T00:31:51;15.40;;;8.25;;
20480;SDS011;10399;50.754;3.366;2022-12-07T00:34:18;13.65;;;8.38;;
20480;SDS011;10399;50.754;3.366;2022-12-07T00:36:47;17.88;;;8.77;;
20480;SDS011;10399;50.754;3.366;2022-12-07T00:39:15;11.88;;;7.68;;
20480;SDS011;10399;50.754;3.366;2022-12-07T00:41:43;16.65;;;8.73;;
20480;SDS011;10399;50.754;3.366;2022-12-07T00:44:09;15.32;;;8.75;;
20480;SDS011;10399;50.754;3.366;2022-12-07T00:46:36;14.63;;;8.32;;
20480;SDS011;10399;50.754;3.366;2022-12-07T00:49:04;16.65;;;8.48;;
20480;SDS011;10399;50.754;3.366;2022-12-07T00:51:31;14.68;;;7.70;;
20480;SDS011;10399;50.754;3.366;2022-12-07T00:53:58;20.98;;;8.13;;
20480;SDS011;10399;50.754;3.366;2022-12-07T00:56:26;13.80;;;8.10;;
20480;SDS011;10399;50.754;3.366;2022-12-07T00:58:58;14.77;;;8.57;;
20480;SDS011;10399;50.754;3.366;2022-12-07T01:01:27;15.23;;;7.97;;
20480;SDS011;10399;50.754;3.366;2022-12-07T01:03:56;13.95;;;7.50;;
20480;SDS011;10399;50.754;3.366;2022-12-07T01:06:24;13.70;;;8.02;;
20480;SDS011;10399;50.754;3.366;2022-12-07T01:08:52;19.65;;;8.15;;
20480;SDS011;10399;50.754;3.366;2022-12-07T01:11:21;16.02;;;8.00;;
20480;SDS011;10399;50.754;3.366;2022-12-07T01:13:50;13.95;;;7.45;;
20480;SDS011;10399;50.754;3.366;2022-12-07T01:16:20;17.75;;;7.93;;
20480;SDS011;10399;50.754;3.366;2022-12-07T01:18:51;12.70;;;7.50;;
20480;SDS011;10399;50.754;3.366;2022-12-07T01:21:20;11.90;;;7.00;;
20480;SDS011;10399;50.754;3.366;2022-12-07T01:23:52;14.43;;;6.97;;
20480;SDS011;10399;50.754;3.366;2022-12-07T01:26:20;16.33;;;7.28;;
20480;SDS011;10399;50.754;3.366;2022-12-07T01:28:48;13.93;;;6.90;;
20480;SDS011;10399;50.754;3.366;2022-12-07T01:31:17;12.30;;;7.13;;
20480;SDS011;10399;50.754;3.366;2022-12-07T01:33:46;16.23;;;7.25;;
20480;SDS011;10399;50.754;3.366;2022-12-07T01:38:49;14.35;;;6.95;;
20480;SDS011;10399;50.754;3.366;2022-12-07T01:41:20;10.80;;;6.30;;
20480;SDS011;10399;50.754;3.366;2022-12-07T01:46:36;13.10;;;5.95;;
20480;SDS011;10399;50.754;3.366;2022-12-07T01:49:04;14.80;;;6.07;;
20480;SDS011;10399;50.754;3.366;2022-12-07T01:51:35;14.70;;;6.90;;
20480;SDS011;10399;50.754;3.366;2022-12-07T01:54:06;12.23;;;6.65;;
20480;SDS011;10399;50.754;3.366;2022-12-07T01:56:34;15.23;;;6.45;;
20480;SDS011;10399;50.754;3.366;2022-12-07T01:59:02;11.30;;;6.45;;
20480;SDS011;10399;50.754;3.366;2022-12-07T02:01:30;11.13;;;6.20;;
20480;SDS011;10399;50.754;3.366;2022-12-07T02:03:57;13.90;;;7.15;;
20480;SDS011;10399;50.754;3.366;2022-12-07T02:06:24;15.32;;;6.93;;
20480;SDS011;10399;50.754;3.366;2022-12-07T02:08:52;13.88;;;6.75;;
20480;SDS011;10399;50.754;3.366;2022-12-07T02:11:20;14.55;;;7.00;;
20480;SDS011;10399;50.754;3.366;2022-12-07T02:13:48;15.32;;;6.47;;
20480;SDS011;10399;50.754;3.366;2022-12-07T02:18:55;15.73;;;7.07;;
20480;SDS011;10399;50.754;3.366;2022-12-07T02:21:37;13.40;;;7.13;;
20480;SDS011;10399;50.754;3.366;2022-12-07T02:24:36;13.38;;;6.93;;
20480;SDS011;10399;50.754;3.366;2022-12-07T02:30:08;13.80;;;5.72;;
20480;SDS011;10399;50.754;3.366;2022-12-07T02:37:51;12.32;;;5.95;;
20480;SDS011;10399;50.754;3.366;2022-12-07T02:40:38;14.32;;;6.28;;
20480;SDS011;10399;50.754;3.366;2022-12-07T02:43:17;11.85;;;5.57;;
20480;SDS011;10399;50.754;3.366;2022-12-07T02:46:09;10.55;;;5.68;;
20480;SDS011;10399;50.754;3.366;2022-12-07T02:48:41;13.88;;;5.90;;
20480;SDS011;10399;50.754;3.366;2022-12-07T02:51:09;10.90;;;5.78;;
20480;SDS011;10399;50.754;3.366;2022-12-07T02:53:38;11.23;;;5.88;;
20480;SDS011;10399;50.754;3.366;2022-12-07T02:56:10;10.15;;;4.95;;
20480;SDS011;10399;50.754;3.366;2022-12-07T03:07:04;8.23;;;5.47;;
20480;SDS011;10399;50.754;3.366;2022-12-07T03:09:43;14.90;;;5.68;;
20480;SDS011;10399;50.754;3.366;2022-12-07T03:12:36;13.13;;;5.70;;
20480;SDS011;10399;50.754;3.366;2022-12-07T03:15:14;10.07;;;6.10;;
20480;SDS011;10399;50.754;3.366;2022-12-07T03:17:47;14.27;;;6.53;;
20480;SDS011;10399;50.754;3.366;2022-12-07T03:20:17;16.23;;;6.28;;
20480;SDS011;10399;50.754;3.366;2022-12-07T03:22:48;14.00;;;6.05;;
20480;SDS011;10399;50.754;3.366;2022-12-07T03:25:17;12.93;;;6.07;;
20480;SDS011;10399;50.754;3.366;2022-12-07T03:27:54;16.65;;;6.32;;
20480;SDS011;10399;50.754;3.366;2022-12-07T03:30:52;10.27;;;6.13;;
20480;SDS011;10399;50.754;3.366;2022-12-07T03:33:29;9.10;;;5.85;;
20480;SDS011;10399;50.754;3.366;2022-12-07T03:41:42;12.27;;;4.97;;
20480;SDS011;10399;50.754;3.366;2022-12-07T03:44:10;15.15;;;6.00;;
20480;SDS011;10399;50.754;3.366;2022-12-07T03:49:27;13.57;;;5.68;;
20480;SDS011;10399;50.754;3.366;2022-12-07T03:52:22;11.88;;;5.85;;
20480;SDS011;10399;50.754;3.366;2022-12-07T03:55:05;9.43;;;5.38;;
20480;SDS011;10399;50.754;3.366;2022-12-07T03:57:37;9.40;;;5.50;;
20480;SDS011;10399;50.754;3.366;2022-12-07T04:00:06;10.93;;;6.15;;
20480;SDS011;10399;50.754;3.366;2022-12-07T04:02:35;11.18;;;5.68;;
20480;SDS011;10399;50.754;3.366;2022-12-07T04:05:02;10.80;;;5.47;;
20480;SDS011;10399;50.754;3.366;2022-12-07T04:07:30;14.50;;;5.43;;
20480;SDS011;10399;50.754;3.366;2022-12-07T04:09:57;10.60;;;5.05;;
20480;SDS011;10399;50.754;3.366;2022-12-07T04:12:24;10.95;;;5.78;;
20480;SDS011;10399;50.754;3.366;2022-12-07T04:14:51;14.38;;;6.28;;
20480;SDS011;10399;50.754;3.366;2022-12-07T04:17:19;10.35;;;5.68;;
20480;SDS011;10399;50.754;3.366;2022-12-07T04:19:46;11.90;;;5.30;;
20480;SDS011;10399;50.754;3.366;2022-12-07T04:22:13;18.50;;;5.63;;
20480;SDS011;10399;50.754;3.366;2022-12-07T04:24:40;13.35;;;5.15;;
20480;SDS011;10399;50.754;3.366;2022-12-07T04:27:07;12.27;;;5.40;;
20480;SDS011;10399;50.754;3.366;2022-12-07T04:29:34;16.05;;;5.40;;
20480;SDS011;10399;50.754;3.366;2022-12-07T04:32:01;11.77;;;5.53;;
20480;SDS011;10399;50.754;3.366;2022-12-07T04:34:28;13.00;;;5.50;;
20480;SDS011;10399;50.754;3.366;2022-12-07T04:36:55;11.23;;;5.57;;
20480;SDS011;10399;50.754;3.366;2022-12-07T04:39:23;15.32;;;5.90;;
20480;SDS011;10399;50.754;3.366;2022-12-07T04:41:53;12.73;;;4.97;;
20480;SDS011;10399;50.754;3.366;2022-12-07T04:44:20;10.38;;;4.88;;
20480;SDS011;10399;50.754;3.366;2022-12-07T04:46:50;13.43;;;5.15;;
20480;SDS011;10399;50.754;3.366;2022-12-07T04:49:18;8.32;;;5.10;;
20480;SDS011;10399;50.754;3.366;2022-12-07T04:51:45;13.93;;;5.10;;
20480;SDS011;10399;50.754;3.366;2022-12-07T04:54:14;12.90;;;4.80;;
20480;SDS011;10399;50.754;3.366;2022-12-07T04:56:43;13.02;;;5.30;;
20480;SDS011;10399;50.754;3.366;2022-12-07T04:59:10;13.98;;;5.15;;
20480;SDS011;10399;50.754;3.366;2022-12-07T05:01:38;11.63;;;6.60;;
20480;SDS011;10399;50.754;3.366;2022-12-07T05:04:06;16.02;;;6.10;;
20480;SDS011;10399;50.754;3.366;2022-12-07T05:06:33;13.50;;;6.57;;
20480;SDS011;10399;50.754;3.366;2022-12-07T05:09:01;15.43;;;7.43;;
20480;SDS011;10399;50.754;3.366;2022-12-07T05:11:28;15.98;;;7.25;;
20480;SDS011;10399;50.754;3.366;2022-12-07T05:14:16;14.65;;;7.97;;
20480;SDS011;10399;50.754;3.366;2022-12-07T05:16:47;13.40;;;7.97;;
20480;SDS011;10399;50.754;3.366;2022-12-07T05:19:16;22.60;;;8.65;;
20480;SDS011;10399;50.754;3.366;2022-12-07T05:21:44;18.52;;;8.90;;
20480;SDS011;10399;50.754;3.366;2022-12-07T05:24:12;21.05;;;8.68;;
20480;SDS011;10399;50.754;3.366;2022-12-07T05:26:40;21.13;;;8.65;;
20480;SDS011;10399;50.754;3.366;2022-12-07T05:29:10;20.45;;;9.18;;
20480;SDS011;10399;50.754;3.366;2022-12-07T05:31:38;15.27;;;8.38;;
20480;SDS011;10399;50.754;3.366;2022-12-07T05:34:06;18.17;;;9.55;;
20480;SDS011;10399;50.754;3.366;2022-12-07T05:36:33;20.15;;;8.55;;
20480;SDS011;10399;50.754;3.366;2022-12-07T05:39:00;22.75;;;9.23;;
20480;SDS011;10399;50.754;3.366;2022-12-07T05:41:27;17.60;;;8.77;;
20480;SDS011;10399;50.754;3.366;2022-12-07T05:44:13;18.42;;;9.10;;
20480;SDS011;10399;50.754;3.366;2022-12-07T05:46:40;22.83;;;9.07;;
20480;SDS011;10399;50.754;3.366;2022-12-07T05:49:07;17.65;;;8.60;;
20480;SDS011;10399;50.754;3.366;2022-12-07T05:51:34;18.58;;;8.23;;
20480;SDS011;10399;50.754;3.366;2022-12-07T05:54:01;20.65;;;8.07;;
20480;SDS011;10399;50.754;3.366;2022-12-07T05:56:28;25.42;;;8.35;;
20480;SDS011;10399;50.754;3.366;2022-12-07T05:58:56;18.27;;;7.28;;
20480;SDS011;10399;50.754;3.366;2022-12-07T06:01:46;21.45;;;7.72;;
20480;SDS011;10399;50.754;3.366;2022-12-07T06:04:23;13.23;;;7.53;;
20480;SDS011;10399;50.754;3.366;2022-12-07T06:06:51;11.93;;;6.88;;
20480;SDS011;10399;50.754;3.366;2022-12-07T06:09:20;15.77;;;8.27;;
20480;SDS011;10399;50.754;3.366;2022-12-07T06:11:48;13.80;;;7.10;;
20480;SDS011;10399;50.754;3.366;2022-12-07T06:14:36;14.75;;;7.55;;
20480;SDS011;10399;50.754;3.366;2022-12-07T06:17:04;13.95;;;7.65;;
20480;SDS011;10399;50.754;3.366;2022-12-07T06:19:31;17.35;;;7.55;;
20480;SDS011;10399;50.754;3.366;2022-12-07T06:21:59;14.32;;;7.55;;
20480;SDS011;10399;50.754;3.366;2022-12-07T06:24:26;14.43;;;6.82;;
20480;SDS011;10399;50.754;3.366;2022-12-07T06:26:53;13.25;;;7.03;;
20480;SDS011;10399;50.754;3.366;2022-12-07T06:29:20;15.98;;;8.68;;
20480;SDS011;10399;50.754;3.366;2022-12-07T06:31:48;16.25;;;7.40;;
20480;SDS011;10399;50.754;3.366;2022-12-07T06:34:16;17.45;;;9.07;;
20480;SDS011;10399;50.754;3.366;2022-12-07T06:36:44;13.82;;;8.25;;
20480;SDS011;10399;50.754;3.366;2022-12-07T06:39:18;21.67;;;7.65;;
20480;SDS011;10399;50.754;3.366;2022-12-07T06:41:46;23.90;;;7.25;;
20480;SDS011;10399;50.754;3.366;2022-12-07T06:44:13;13.52;;;6.88;;
20480;SDS011;10399;50.754;3.366;2022-12-07T06:46:41;14.73;;;6.80;;
20480;SDS011;10399;50.754;3.366;2022-12-07T06:49:08;17.13;;;6.57;;
20480;SDS011;10399;50.754;3.366;2022-12-07T06:51:35;15.65;;;7.57;;
20480;SDS011;10399;50.754;3.366;2022-12-07T06:54:03;17.58;;;10.00;;
20480;SDS011;10399;50.754;3.366;2022-12-07T06:56:30;16.77;;;10.45;;
20480;SDS011;10399;50.754;3.366;2022-12-07T06:58:57;26.45;;;11.23;;
20480;SDS011;10399;50.754;3.366;2022-12-07T07:01:24;18.90;;;11.70;;
20480;SDS011;10399;50.754;3.366;2022-12-07T07:03:51;16.52;;;10.20;;
20480;SDS011;10399;50.754;3.366;2022-12-07T07:06:18;21.58;;;11.75;;
20480;SDS011;10399;50.754;3.366;2022-12-07T07:08:46;17.08;;;10.43;;
20480;SDS011;10399;50.754;3.366;2022-12-07T07:11:13;24.88;;;13.05;;
20480;SDS011;10399;50.754;3.366;2022-12-07T07:13:40;22.42;;;11.65;;
20480;SDS011;10399;50.754;3.366;2022-12-07T07:16:07;27.33;;;15.70;;
20480;SDS011;10399;50.754;3.366;2022-12-07T07:18:35;29.60;;;15.45;;
20480;SDS011;10399;50.754;3.366;2022-12-07T07:21:01;22.33;;;11.07;;
20480;SDS011;10399;50.754;3.366;2022-12-07T07:23:29;17.05;;;8.55;;
20480;SDS011;10399;50.754;3.366;2022-12-07T07:25:56;15.38;;;7.30;;
20480;SDS011;10399;50.754;3.366;2022-12-07T07:28:23;20.25;;;6.53;;
20480;SDS011;10399;50.754;3.366;2022-12-07T07:30:51;14.68;;;6.43;;
20480;SDS011;10399;50.754;3.366;2022-12-07T07:33:18;16.80;;;6.50;;
20480;SDS011;10399;50.754;3.366;2022-12-07T07:35:45;17.73;;;6.45;;
20480;SDS011;10399;50.754;3.366;2022-12-07T07:38:12;16.10;;;6.50;;
20480;SDS011;10399;50.754;3.366;2022-12-07T07:40:39;13.70;;;6.13;;
20480;SDS011;10399;50.754;3.366;2022-12-07T07:43:06;15.07;;;5.97;;
20480;SDS011;10399;50.754;3.366;2022-12-07T07:45:33;13.05;;;5.32;;
20480;SDS011;10399;50.754;3.366;2022-12-07T07:48:00;14.23;;;5.80;;
20480;SDS011;10399;50.754;3.366;2022-12-07T07:50:27;10.05;;;4.53;;
20480;SDS011;10399;50.754;3.366;2022-12-07T07:52:56;14.00;;;4.93;;
20480;SDS011;10399;50.754;3.366;2022-12-07T07:55:24;13.52;;;4.75;;
20480;SDS011;10399;50.754;3.366;2022-12-07T07:57:50;12.43;;;5.00;;
20480;SDS011;10399;50.754;3.366;2022-12-07T08:00:20;13.15;;;5.50;;
20480;SDS011;10399;50.754;3.366;2022-12-07T08:02:48;10.75;;;4.57;;
20480;SDS011;10399;50.754;3.366;2022-12-07T08:05:15;16.02;;;5.10;;
20480;SDS011;10399;50.754;3.366;2022-12-07T08:07:42;8.65;;;4.15;;
20480;SDS011;10399;50.754;3.366;2022-12-07T08:10:10;10.35;;;4.60;;
20480;SDS011;10399;50.754;3.366;2022-12-07T08:12:39;11.13;;;4.25;;
20480;SDS011;10399;50.754;3.366;2022-12-07T08:15:28;9.90;;;4.68;;
20480;SDS011;10399;50.754;3.366;2022-12-07T08:17:57;10.90;;;4.90;;
20480;SDS011;10399;50.754;3.366;2022-12-07T08:20:24;14.38;;;4.93;;
20480;SDS011;10399;50.754;3.366;2022-12-07T08:22:51;13.80;;;4.82;;
20480;SDS011;10399;50.754;3.366;2022-12-07T08:25:19;11.60;;;4.60;;
20480;SDS011;10399;50.754;3.366;2022-12-07T08:27:46;12.38;;;4.45;;
20480;SDS011;10399;50.754;3.366;2022-12-07T08:30:13;14.57;;;4.57;;
20480;SDS011;10399;50.754;3.366;2022-12-07T08:32:40;8.30;;;4.43;;
20480;SDS011;10399;50.754;3.366;2022-12-07T08:35:07;10.35;;;4.10;;
20480;SDS011;10399;50.754;3.366;2022-12-07T08:37:35;9.63;;;3.90;;
20480;SDS011;10399;50.754;3.366;2022-12-07T08:40:02;12.32;;;4.45;;
20480;SDS011;10399;50.754;3.366;2022-12-07T08:42:31;8.15;;;3.70;;
20480;SDS011;10399;50.754;3.366;2022-12-07T08:45:08;10.52;;;3.30;;
20480;SDS011;10399;50.754;3.366;2022-12-07T08:47:39;11.05;;;3.05;;
20480;SDS011;10399;50.754;3.366;2022-12-07T08:50:09;11.07;;;3.22;;
20480;SDS011;10399;50.754;3.366;2022-12-07T08:52:38;7.70;;;2.80;;
20480;SDS011;10399;50.754;3.366;2022-12-07T08:55:06;9.38;;;2.70;;
20480;SDS011;10399;50.754;3.366;2022-12-07T08:57:35;16.20;;;2.72;;
20480;SDS011;10399;50.754;3.366;2022-12-07T09:00:04;8.82;;;2.80;;
20480;SDS011;10399;50.754;3.366;2022-12-07T09:02:32;9.63;;;2.70;;
20480;SDS011;10399;50.754;3.366;2022-12-07T09:04:59;12.00;;;2.97;;
20480;SDS011;10399;50.754;3.366;2022-12-07T09:07:26;8.10;;;2.90;;
20480;SDS011;10399;50.754;3.366;2022-12-07T09:09:54;8.50;;;2.83;;
20480;SDS011;10399;50.754;3.366;2022-12-07T09:12:21;12.57;;;2.95;;
20480;SDS011;10399;50.754;3.366;2022-12-07T09:14:47;11.73;;;3.30;;
20480;SDS011;10399;50.754;3.366;2022-12-07T09:17:15;16.10;;;3.55;;
20480;SDS011;10399;50.754;3.366;2022-12-07T09:19:42;9.40;;;3.30;;
20480;SDS011;10399;50.754;3.366;2022-12-07T09:22:09;11.32;;;3.67;;
20480;SDS011;10399;50.754;3.366;2022-12-07T09:24:36;12.35;;;4.07;;
20480;SDS011;10399;50.754;3.366;2022-12-07T09:27:04;11.23;;;3.58;;
20480;SDS011;10399;50.754;3.366;2022-12-07T09:29:31;12.80;;;3.58;;
20480;SDS011;10399;50.754;3.366;2022-12-07T09:31:58;9.10;;;4.13;;
20480;SDS011;10399;50.754;3.366;2022-12-07T09:34:25;11.95;;;3.75;;
20480;SDS011;10399;50.754;3.366;2022-12-07T09:36:53;12.75;;;3.60;;
20480;SDS011;10399;50.754;3.366;2022-12-07T09:39:20;8.27;;;3.40;;
20480;SDS011;10399;50.754;3.366;2022-12-07T09:41:46;11.82;;;3.58;;
20480;SDS011;10399;50.754;3.366;2022-12-07T09:44:16;15.20;;;3.63;;
20480;SDS011;10399;50.754;3.366;2022-12-07T09:46:50;17.30;;;4.03;;
20480;SDS011;10399;50.754;3.366;2022-12-07T09:49:20;11.20;;;3.78;;
20480;SDS011;10399;50.754;3.366;2022-12-07T09:54:36;10.85;;;3.70;;
20480;SDS011;10399;50.754;3.366;2022-12-07T09:57:07;12.65;;;3.88;;
20480;SDS011;10399;50.754;3.366;2022-12-07T09:59:37;8.23;;;3.75;;
20480;SDS011;10399;50.754;3.366;2022-12-07T10:02:19;12.82;;;4.22;;
20480;SDS011;10399;50.754;3.366;2022-12-07T10:05:13;13.77;;;4.82;;
20480;SDS011;10399;50.754;3.366;2022-12-07T10:07:49;14.98;;;4.25;;
20480;SDS011;10399;50.754;3.366;2022-12-07T10:10:23;12.75;;;3.63;;
20480;SDS011;10399;50.754;3.366;2022-12-07T10:13:07;10.55;;;3.47;;
20480;SDS011;10399;50.754;3.366;2022-12-07T10:15:42;8.75;;;3.47;;
20480;SDS011;10399;50.754;3.366;2022-12-07T10:18:16;11.07;;;3.35;;
20480;SDS011;10399;50.754;3.366;2022-12-07T10:20:45;9.10;;;3.17;;
20480;SDS011;10399;50.754;3.366;2022-12-07T10:23:15;10.02;;;2.90;;
20480;SDS011;10399;50.754;3.366;2022-12-07T10:25:44;8.57;;;3.53;;
20480;SDS011;10399;50.754;3.366;2022-12-07T10:28:15;10.45;;;2.47;;
20480;SDS011;10399;50.754;3.366;2022-12-07T10:35:57;5.13;;;2.97;;
20480;SDS011;10399;50.754;3.366;2022-12-07T10:38:26;10.40;;;3.05;;
20480;SDS011;10399;50.754;3.366;2022-12-07T10:41:06;8.80;;;3.80;;
20480;SDS011;10399;50.754;3.366;2022-12-07T10:43:35;6.20;;;3.72;;
20480;SDS011;10399;50.754;3.366;2022-12-07T10:46:26;7.65;;;3.50;;
20480;SDS011;10399;50.754;3.366;2022-12-07T10:49:13;10.05;;;3.60;;
20480;SDS011;10399;50.754;3.366;2022-12-07T10:55:32;16.02;;;3.75;;
20480;SDS011;10399;50.754;3.366;2022-12-07T10:58:04;10.57;;;3.65;;
20480;SDS011;10399;50.754;3.366;2022-12-07T11:01:19;11.82;;;3.72;;
20480;SDS011;10399;50.754;3.366;2022-12-07T11:20:28;6.13;;;2.00;;
20480;SDS011;10399;50.754;3.366;2022-12-07T11:33:29;6.18;;;1.80;;
20480;SDS011;10399;50.754;3.366;2022-12-07T11:39:07;5.07;;;1.60;;
20480;SDS011;10399;50.754;3.366;2022-12-07T11:41:42;5.63;;;1.63;;
20480;SDS011;10399;50.754;3.366;2022-12-07T11:47:14;5.18;;;1.50;;
20480;SDS011;10399;50.754;3.366;2022-12-07T11:52:57;6.20;;;1.52;;
20480;SDS011;10399;50.754;3.366;2022-12-07T12:00:59;7.22;;;2.00;;
20480;SDS011;10399;50.754;3.366;2022-12-07T12:03:47;6.35;;;2.00;;
20480;SDS011;10399;50.754;3.366;2022-12-07T12:06:19;5.57;;;1.73;;
20480;SDS011;10399;50.754;3.366;2022-12-07T12:09:10;14.77;;;1.67;;
20480;SDS011;10399;50.754;3.366;2022-12-07T12:15:03;4.65;;;1.58;;
20480;SDS011;10399;50.754;3.366;2022-12-07T12:25:46;6.70;;;1.55;;
20480;SDS011;10399;50.754;3.366;2022-12-07T12:28:42;4.25;;;1.52;;
20480;SDS011;10399;50.754;3.366;2022-12-07T12:31:28;3.85;;;1.55;;
20480;SDS011;10399;50.754;3.366;2022-12-07T12:34:03;5.05;;;1.63;;
20480;SDS011;10399;50.754;3.366;2022-12-07T12:36:46;6.60;;;2.15;;
20480;SDS011;10399;50.754;3.366;2022-12-07T12:39:15;5.38;;;1.90;;
20480;SDS011;10399;50.754;3.366;2022-12-07T12:41:57;6.60;;;3.10;;
20480;SDS011;10399;50.754;3.366;2022-12-07T12:49:35;5.65;;;2.00;;
20480;SDS011;10399;50.754;3.366;2022-12-07T12:57:35;5.70;;;1.55;;
20480;SDS011;10399;50.754;3.366;2022-12-07T13:00:15;4.68;;;1.80;;
20480;SDS011;10399;50.754;3.366;2022-12-07T13:02:48;6.57;;;2.00;;
20480;SDS011;10399;50.754;3.366;2022-12-07T13:05:29;1.92;;;1.40;;
20480;SDS011;10399;50.754;3.366;2022-12-07T13:08:30;4.88;;;1.58;;
20480;SDS011;10399;50.754;3.366;2022-12-07T13:10:57;5.13;;;1.50;;
20480;SDS011;10399;50.754;3.366;2022-12-07T13:13:44;6.80;;;1.08;;
20480;SDS011;10399;50.754;3.366;2022-12-07T13:18:39;5.65;;;1.48;;
20480;SDS011;10399;50.754;3.366;2022-12-07T13:31:37;3.90;;;1.13;;
20480;SDS011;10399;50.754;3.366;2022-12-07T13:40:17;4.25;;;1.27;;
20480;SDS011;10399;50.754;3.366;2022-12-07T13:42:46;2.50;;;1.23;;
20480;SDS011;10399;50.754;3.366;2022-12-07T13:45:20;3.75;;;1.23;;
20480;SDS011;10399;50.754;3.366;2022-12-07T13:50:43;8.00;;;1.92;;
20480;SDS011;10399;50.754;3.366;2022-12-07T13:53:18;7.45;;;1.55;;
20480;SDS011;10399;50.754;3.366;2022-12-07T13:55:48;4.90;;;1.30;;
20480;SDS011;10399;50.754;3.366;2022-12-07T13:58:19;3.05;;;1.17;;
20480;SDS011;10399;50.754;3.366;2022-12-07T14:00:48;6.78;;;1.40;;
20480;SDS011;10399;50.754;3.366;2022-12-07T14:05:43;6.60;;;2.00;;
20480;SDS011;10399;50.754;3.366;2022-12-07T14:10:40;5.55;;;1.88;;
20480;SDS011;10399;50.754;3.366;2022-12-07T14:13:25;5.07;;;1.77;;
20480;SDS011;10399;50.754;3.366;2022-12-07T14:16:00;5.82;;;1.92;;
20480;SDS011;10399;50.754;3.366;2022-12-07T14:18:39;3.95;;;2.05;;
20480;SDS011;10399;50.754;3.366;2022-12-07T14:23:39;6.05;;;2.03;;
20480;SDS011;10399;50.754;3.366;2022-12-07T14:26:09;7.78;;;2.20;;
20480;SDS011;10399;50.754;3.366;2022-12-07T14:28:40;6.25;;;2.20;;
20480;SDS011;10399;50.754;3.366;2022-12-07T14:31:21;9.18;;;2.13;;
20480;SDS011;10399;50.754;3.366;2022-12-07T14:33:59;8.93;;;2.00;;
20480;SDS011;10399;50.754;3.366;2022-12-07T14:36:26;14.15;;;2.90;;
20480;SDS011;10399;50.754;3.366;2022-12-07T14:38:53;6.15;;;2.55;;
20480;SDS011;10399;50.754;3.366;2022-12-07T14:41:22;7.53;;;2.58;;
20480;SDS011;10399;50.754;3.366;2022-12-07T14:44:12;10.43;;;2.90;;
20480;SDS011;10399;50.754;3.366;2022-12-07T14:46:54;6.70;;;3.50;;
20480;SDS011;10399;50.754;3.366;2022-12-07T14:49:41;10.00;;;2.38;;
20480;SDS011;10399;50.754;3.366;2022-12-07T14:52:16;4.90;;;1.70;;
20480;SDS011;10399;50.754;3.366;2022-12-07T14:55:19;3.80;;;1.13;;
20480;SDS011;10399;50.754;3.366;2022-12-07T14:57:51;4.65;;;1.30;;
20480;SDS011;10399;50.754;3.366;2022-12-07T15:00:19;4.53;;;1.05;;
20480;SDS011;10399;50.754;3.366;2022-12-07T15:02:48;6.13;;;1.02;;
20480;SDS011;10399;50.754;3.366;2022-12-07T15:05:16;2.03;;;0.75;;
20480;SDS011;10399;50.754;3.366;2022-12-07T15:07:48;3.38;;;1.05;;
20480;SDS011;10399;50.754;3.366;2022-12-07T15:10:49;3.63;;;0.98;;
20480;SDS011;10399;50.754;3.366;2022-12-07T15:13:24;2.65;;;0.75;;
20480;SDS011;10399;50.754;3.366;2022-12-07T15:16:10;4.57;;;1.17;;
20480;SDS011;10399;50.754;3.366;2022-12-07T15:18:42;1.90;;;0.90;;
20480;SDS011;10399;50.754;3.366;2022-12-07T15:21:28;4.10;;;1.20;;
20480;SDS011;10399;50.754;3.366;2022-12-07T15:23:56;3.92;;;1.35;;
20480;SDS011;10399;50.754;3.366;2022-12-07T15:26:23;6.03;;;1.92;;
20480;SDS011;10399;50.754;3.366;2022-12-07T15:28:50;5.15;;;1.50;;
20480;SDS011;10399;50.754;3.366;2022-12-07T15:31:19;4.55;;;1.40;;
20480;SDS011;10399;50.754;3.366;2022-12-07T15:34:07;4.22;;;1.33;;
20480;SDS011;10399;50.754;3.366;2022-12-07T15:36:35;5.05;;;1.65;;
20480;SDS011;10399;50.754;3.366;2022-12-07T15:39:02;4.05;;;1.73;;
20480;SDS011;10399;50.754;3.366;2022-12-07T15:41:40;6.38;;;1.75;;
20480;SDS011;10399;50.754;3.366;2022-12-07T15:44:09;3.97;;;1.70;;
20480;SDS011;10399;50.754;3.366;2022-12-07T15:46:59;7.28;;;2.60;;
20480;SDS011;10399;50.754;3.366;2022-12-07T15:49:26;7.55;;;2.85;;
20480;SDS011;10399;50.754;3.366;2022-12-07T15:51:54;7.45;;;3.10;;
20480;SDS011;10399;50.754;3.366;2022-12-07T15:54:22;10.93;;;3.45;;
20480;SDS011;10399;50.754;3.366;2022-12-07T15:56:50;3.53;;;2.08;;
20480;SDS011;10399;50.754;3.366;2022-12-07T15:59:18;4.38;;;1.15;;
20480;SDS011;10399;50.754;3.366;2022-12-07T16:01:45;3.83;;;1.15;;
20480;SDS011;10399;50.754;3.366;2022-12-07T16:04:12;5.07;;;0.98;;
20480;SDS011;10399;50.754;3.366;2022-12-07T16:06:39;5.80;;;1.00;;
20480;SDS011;10399;50.754;3.366;2022-12-07T16:09:13;2.38;;;1.00;;
20480;SDS011;10399;50.754;3.366;2022-12-07T16:11:44;4.20;;;2.17;;
20480;SDS011;10399;50.754;3.366;2022-12-07T16:14:15;2.67;;;1.63;;
20480;SDS011;10399;50.754;3.366;2022-12-07T16:16:42;4.82;;;1.60;;
20480;SDS011;10399;50.754;3.366;2022-12-07T16:19:16;4.43;;;1.27;;
20480;SDS011;10399;50.754;3.366;2022-12-07T16:21:44;35.88;;;8.55;;
20480;SDS011;10399;50.754;3.366;2022-12-07T16:24:14;4.85;;;1.83;;
20480;SDS011;10399;50.754;3.366;2022-12-07T16:26:44;7.68;;;2.00;;
20480;SDS011;10399;50.754;3.366;2022-12-07T16:29:16;5.13;;;2.03;;
20480;SDS011;10399;50.754;3.366;2022-12-07T16:31:45;8.23;;;2.20;;
20480;SDS011;10399;50.754;3.366;2022-12-07T16:34:13;6.30;;;2.65;;
20480;SDS011;10399;50.754;3.366;2022-12-07T16:36:41;5.35;;;2.70;;
20480;SDS011;10399;50.754;3.366;2022-12-07T16:39:28;7.32;;;2.85;;
20480;SDS011;10399;50.754;3.366;2022-12-07T16:41:55;8.30;;;3.40;;
20480;SDS011;10399;50.754;3.366;2022-12-07T16:44:23;11.27;;;3.70;;
20480;SDS011;10399;50.754;3.366;2022-12-07T16:46:50;10.38;;;3.45;;
20480;SDS011;10399;50.754;3.366;2022-12-07T16:49:20;9.70;;;3.55;;
20480;SDS011;10399;50.754;3.366;2022-12-07T16:51:50;7.97;;;3.45;;
20480;SDS011;10399;50.754;3.366;2022-12-07T16:54:38;8.57;;;3.65;;
20480;SDS011;10399;50.754;3.366;2022-12-07T16:57:05;10.90;;;4.25;;
20480;SDS011;10399;50.754;3.366;2022-12-07T16:59:33;9.80;;;4.60;;
20480;SDS011;10399;50.754;3.366;2022-12-07T17:02:00;11.80;;;4.45;;
20480;SDS011;10399;50.754;3.366;2022-12-07T17:04:27;10.98;;;4.68;;
20480;SDS011;10399;50.754;3.366;2022-12-07T17:06:54;16.08;;;5.20;;
20480;SDS011;10399;50.754;3.366;2022-12-07T17:09:21;12.40;;;5.03;;
20480;SDS011;10399;50.754;3.366;2022-12-07T17:11:48;13.18;;;4.80;;
20480;SDS011;10399;50.754;3.366;2022-12-07T17:14:15;9.13;;;4.95;;
20480;SDS011;10399;50.754;3.366;2022-12-07T17:17:01;7.53;;;4.40;;
20480;SDS011;10399;50.754;3.366;2022-12-07T17:19:30;10.25;;;4.80;;
20480;SDS011;10399;50.754;3.366;2022-12-07T17:21:57;18.42;;;5.10;;
20480;SDS011;10399;50.754;3.366;2022-12-07T17:24:25;14.73;;;5.32;;